sensor_id;sensor_type;location;lat;lon;timestamp;pressure;altitude;pressure_sealevel;temperature;humidity
75157;BME280;63736;50.076;8.198;2024-01-06T00:01:59;98309.94;;;3.15;100.00
75157;BME280;63736;50.076;8.198;2024-01-06T00:04:24;98323.75;;;3.19;100.00
75157;BME280;63736;50.076;8.198;2024-01-06T00:06:49;98330.50;;;3.23;100.00
75157;BME280;63736;50.076;8.198;2024-01-06T00:09:15;98320.53;;;3.26;100.00
75157;BME280;63736;50.076;8.198;2024-01-06T00:11:40;98322.72;;;3.33;100.00
75157;BME280;63736;50.076;8.198;2024-01-06T00:14:05;98319.75;;;3.37;100.00
75157;BME280;63736;50.076;8.198;2024-01-06T00:16:30;98327.94;;;3.45;100.00
75157;BME280;63736;50.076;8.198;2024-01-06T00:18:55;98336.47;;;3.49;100.00
75157;BME280;63736;50.076;8.198;2024-01-06T00:21:20;98337.09;;;3.53;100.00
75157;BME280;63736;50.076;8.198;2024-01-06T00:23:46;98333.28;;;3.57;100.00
75157;BME280;63736;50.076;8.198;2024-01-06T00:26:11;98328.00;;;3.57;100.00
75157;BME280;63736;50.076;8.198;2024-01-06T00:28:37;98335.78;;;3.58;100.00
75157;BME280;63736;50.076;8.198;2024-01-06T00:31:02;98334.59;;;3.62;100.00
75157;BME280;63736;50.076;8.198;2024-01-06T00:33:27;98338.81;;;3.65;100.00
75157;BME280;63736;50.076;8.198;2024-01-06T00:35:53;98336.91;;;3.67;100.00
75157;BME280;63736;50.076;8.198;2024-01-06T00:38:20;98334.91;;;3.71;100.00
75157;BME280;63736;50.076;8.198;2024-01-06T00:40:45;98339.09;;;3.73;100.00
75157;BME280;63736;50.076;8.198;2024-01-06T00:43:10;98332.63;;;3.77;100.00
75157;BME280;63736;50.076;8.198;2024-01-06T00:45:35;98334.19;;;3.80;100.00
75157;BME280;63736;50.076;8.198;2024-01-06T00:48:00;98342.72;;;3.84;100.00
75157;BME280;63736;50.076;8.198;2024-01-06T00:50:25;98341.63;;;3.86;100.00
75157;BME280;63736;50.076;8.198;2024-01-06T00:52:51;98340.34;;;3.92;100.00
75157;BME280;63736;50.076;8.198;2024-01-06T00:55:17;98338.31;;;3.95;100.00
75157;BME280;63736;50.076;8.198;2024-01-06T00:57:43;98340.72;;;3.99;100.00
75157;BME280;63736;50.076;8.198;2024-01-06T01:00:08;98334.38;;;4.01;100.00
75157;BME280;63736;50.076;8.198;2024-01-06T01:02:33;98343.97;;;4.02;100.00
75157;BME280;63736;50.076;8.198;2024-01-06T01:04:58;98335.09;;;4.03;100.00
75157;BME280;63736;50.076;8.198;2024-01-06T01:07:24;98342.91;;;4.05;100.00
75157;BME280;63736;50.076;8.198;2024-01-06T01:09:49;98353.47;;;4.05;100.00
75157;BME280;63736;50.076;8.198;2024-01-06T01:12:14;98348.91;;;4.07;100.00
75157;BME280;63736;50.076;8.198;2024-01-06T01:14:39;98349.75;;;4.07;100.00
75157;BME280;63736;50.076;8.198;2024-01-06T01:17:04;98353.13;;;4.09;100.00
75157;BME280;63736;50.076;8.198;2024-01-06T01:19:30;98350.34;;;4.11;100.00
75157;BME280;63736;50.076;8.198;2024-01-06T01:21:55;98360.69;;;4.14;100.00
75157;BME280;63736;50.076;8.198;2024-01-06T01:24:21;98354.47;;;4.15;100.00
75157;BME280;63736;50.076;8.198;2024-01-06T01:26:46;98351.69;;;4.17;100.00
75157;BME280;63736;50.076;8.198;2024-01-06T01:29:11;98362.88;;;4.20;100.00
75157;BME280;63736;50.076;8.198;2024-01-06T01:31:36;98365.53;;;4.20;100.00
75157;BME280;63736;50.076;8.198;2024-01-06T01:34:02;98364.44;;;4.23;100.00
75157;BME280;63736;50.076;8.198;2024-01-06T01:36:27;98361.69;;;4.24;100.00
75157;BME280;63736;50.076;8.198;2024-01-06T01:38:52;98360.72;;;4.25;100.00
75157;BME280;63736;50.076;8.198;2024-01-06T01:41:17;98364.22;;;4.26;100.00
75157;BME280;63736;50.076;8.198;2024-01-06T01:43:42;98365.66;;;4.30;100.00
75157;BME280;63736;50.076;8.198;2024-01-06T01:46:07;98370.59;;;4.35;100.00
75157;BME280;63736;50.076;8.198;2024-01-06T01:48:33;98365.06;;;4.38;100.00
75157;BME280;63736;50.076;8.198;2024-01-06T01:50:59;98379.00;;;4.40;100.00
75157;BME280;63736;50.076;8.198;2024-01-06T01:53:24;98374.69;;;4.39;100.00
75157;BME280;63736;50.076;8.198;2024-01-06T01:55:51;98377.44;;;4.37;100.00
75157;BME280;63736;50.076;8.198;2024-01-06T01:58:16;98382.63;;;4.39;100.00
75157;BME280;63736;50.076;8.198;2024-01-06T02:00:41;98376.25;;;4.41;100.00
75157;BME280;63736;50.076;8.198;2024-01-06T02:03:06;98379.50;;;4.45;100.00
75157;BME280;63736;50.076;8.198;2024-01-06T02:05:32;98375.03;;;4.45;100.00
75157;BME280;63736;50.076;8.198;2024-01-06T02:07:57;98381.91;;;4.48;100.00
75157;BME280;63736;50.076;8.198;2024-01-06T02:10:23;98386.22;;;4.49;100.00
75157;BME280;63736;50.076;8.198;2024-01-06T02:12:48;98386.94;;;4.51;100.00
75157;BME280;63736;50.076;8.198;2024-01-06T02:15:14;98389.50;;;4.53;100.00
75157;BME280;63736;50.076;8.198;2024-01-06T02:17:39;98388.41;;;4.55;100.00
75157;BME280;63736;50.076;8.198;2024-01-06T02:20:05;98393.44;;;4.58;100.00
75157;BME280;63736;50.076;8.198;2024-01-06T02:22:30;98391.53;;;4.60;100.00
75157;BME280;63736;50.076;8.198;2024-01-06T02:24:55;98387.81;;;4.63;100.00
75157;BME280;63736;50.076;8.198;2024-01-06T02:27:21;98399.97;;;4.66;100.00
75157;BME280;63736;50.076;8.198;2024-01-06T02:29:46;98400.78;;;4.66;100.00
75157;BME280;63736;50.076;8.198;2024-01-06T02:32:11;98400.53;;;4.69;100.00
75157;BME280;63736;50.076;8.198;2024-01-06T02:34:36;98398.63;;;4.71;100.00
75157;BME280;63736;50.076;8.198;2024-01-06T02:37:03;98407.28;;;4.73;100.00
75157;BME280;63736;50.076;8.198;2024-01-06T02:39:28;98404.53;;;4.75;100.00
75157;BME280;63736;50.076;8.198;2024-01-06T02:41:54;98407.19;;;4.75;100.00
75157;BME280;63736;50.076;8.198;2024-01-06T02:44:19;98408.63;;;4.79;100.00
75157;BME280;63736;50.076;8.198;2024-01-06T02:46:44;98398.66;;;4.83;100.00
75157;BME280;63736;50.076;8.198;2024-01-06T02:49:09;98405.50;;;4.85;100.00
75157;BME280;63736;50.076;8.198;2024-01-06T02:51:34;98407.06;;;4.88;100.00
75157;BME280;63736;50.076;8.198;2024-01-06T02:53:59;98412.84;;;4.93;100.00
75157;BME280;63736;50.076;8.198;2024-01-06T02:56:25;98411.75;;;4.95;100.00
75157;BME280;63736;50.076;8.198;2024-01-06T02:58:50;98411.63;;;4.97;100.00
75157;BME280;63736;50.076;8.198;2024-01-06T03:01:15;98408.03;;;4.98;100.00
75157;BME280;63736;50.076;8.198;2024-01-06T03:03:40;98407.91;;;5.00;100.00
75157;BME280;63736;50.076;8.198;2024-01-06T03:06:05;98406.69;;;5.04;100.00
75157;BME280;63736;50.076;8.198;2024-01-06T03:08:31;98415.22;;;5.07;100.00
75157;BME280;63736;50.076;8.198;2024-01-06T03:10:56;98414.63;;;5.15;100.00
75157;BME280;63736;50.076;8.198;2024-01-06T03:13:21;98412.47;;;5.20;100.00
75157;BME280;63736;50.076;8.198;2024-01-06T03:15:46;98411.25;;;5.24;100.00
75157;BME280;63736;50.076;8.198;2024-01-06T03:18:13;98414.38;;;5.29;100.00
75157;BME280;63736;50.076;8.198;2024-01-06T03:20:38;98415.06;;;5.32;100.00
75157;BME280;63736;50.076;8.198;2024-01-06T03:23:03;98411.47;;;5.33;100.00
75157;BME280;63736;50.076;8.198;2024-01-06T03:25:29;98402.69;;;5.32;100.00
75157;BME280;63736;50.076;8.198;2024-01-06T03:27:54;98406.03;;;5.34;100.00
75157;BME280;63736;50.076;8.198;2024-01-06T03:30:19;98404.25;;;5.35;100.00
75157;BME280;63736;50.076;8.198;2024-01-06T03:32:44;98403.25;;;5.36;100.00
75157;BME280;63736;50.076;8.198;2024-01-06T03:35:09;98406.75;;;5.36;100.00
75157;BME280;63736;50.076;8.198;2024-01-06T03:37:34;98413.63;;;5.39;100.00
75157;BME280;63736;50.076;8.198;2024-01-06T03:40:00;98409.03;;;5.41;100.00
75157;BME280;63736;50.076;8.198;2024-01-06T03:42:25;98417.56;;;5.44;100.00
75157;BME280;63736;50.076;8.198;2024-01-06T03:44:50;98420.81;;;5.48;100.00
75157;BME280;63736;50.076;8.198;2024-01-06T03:47:15;98424.06;;;5.52;100.00
75157;BME280;63736;50.076;8.198;2024-01-06T03:49:40;98426.47;;;5.55;100.00
75157;BME280;63736;50.076;8.198;2024-01-06T03:52:06;98429.84;;;5.57;100.00
75157;BME280;63736;50.076;8.198;2024-01-06T03:54:31;98428.63;;;5.61;100.00
75157;BME280;63736;50.076;8.198;2024-01-06T03:56:56;98438.13;;;5.63;100.00
75157;BME280;63736;50.076;8.198;2024-01-06T03:59:21;98440.63;;;5.65;100.00
75157;BME280;63736;50.076;8.198;2024-01-06T04:01:46;98449.31;;;5.67;100.00
75157;BME280;63736;50.076;8.198;2024-01-06T04:04:12;98439.69;;;5.66;100.00
75157;BME280;63736;50.076;8.198;2024-01-06T04:06:37;98438.72;;;5.67;100.00
75157;BME280;63736;50.076;8.198;2024-01-06T04:09:02;98435.09;;;5.68;100.00
75157;BME280;63736;50.076;8.198;2024-01-06T04:11:27;98427.13;;;5.68;100.00
75157;BME280;63736;50.076;8.198;2024-01-06T04:13:52;98433.16;;;5.70;100.00
75157;BME280;63736;50.076;8.198;2024-01-06T04:16:18;98434.00;;;5.71;100.00
75157;BME280;63736;50.076;8.198;2024-01-06T04:18:43;98429.28;;;5.74;100.00
75157;BME280;63736;50.076;8.198;2024-01-06T04:21:08;98436.16;;;5.77;100.00
75157;BME280;63736;50.076;8.198;2024-01-06T04:23:34;98436.88;;;5.79;100.00
75157;BME280;63736;50.076;8.198;2024-01-06T04:25:59;98443.88;;;5.80;100.00
75157;BME280;63736;50.076;8.198;2024-01-06T04:28:24;98440.22;;;5.81;100.00
75157;BME280;63736;50.076;8.198;2024-01-06T04:30:50;98445.53;;;5.81;100.00
75157;BME280;63736;50.076;8.198;2024-01-06T04:33:15;98460.59;;;5.81;100.00
75157;BME280;63736;50.076;8.198;2024-01-06T04:35:40;98447.22;;;5.82;100.00
75157;BME280;63736;50.076;8.198;2024-01-06T04:38:05;98451.56;;;5.83;100.00
75157;BME280;63736;50.076;8.198;2024-01-06T04:40:31;98445.53;;;5.81;100.00
75157;BME280;63736;50.076;8.198;2024-01-06T04:42:56;98439.41;;;5.81;100.00
75157;BME280;63736;50.076;8.198;2024-01-06T04:45:21;98434.81;;;5.83;100.00
75157;BME280;63736;50.076;8.198;2024-01-06T04:47:49;98440.00;;;5.84;100.00
75157;BME280;63736;50.076;8.198;2024-01-06T04:50:14;98439.84;;;5.86;100.00
75157;BME280;63736;50.076;8.198;2024-01-06T04:52:39;98441.09;;;5.82;100.00
75157;BME280;63736;50.076;8.198;2024-01-06T04:55:04;98439.13;;;5.84;100.00
75157;BME280;63736;50.076;8.198;2024-01-06T04:57:29;98447.81;;;5.86;100.00
75157;BME280;63736;50.076;8.198;2024-01-06T04:59:54;98439.03;;;5.85;100.00
75157;BME280;63736;50.076;8.198;2024-01-06T05:02:20;98446.84;;;5.87;100.00
75157;BME280;63736;50.076;8.198;2024-01-06T05:04:45;98444.19;;;5.87;100.00
75157;BME280;63736;50.076;8.198;2024-01-06T05:07:10;98451.28;;;5.86;100.00
75157;BME280;63736;50.076;8.198;2024-01-06T05:09:35;98451.41;;;5.85;100.00
75157;BME280;63736;50.076;8.198;2024-01-06T05:12:01;98447.94;;;5.84;100.00
75157;BME280;63736;50.076;8.198;2024-01-06T05:14:26;98457.81;;;5.82;100.00
75157;BME280;63736;50.076;8.198;2024-01-06T05:16:51;98461.56;;;5.79;100.00
75157;BME280;63736;50.076;8.198;2024-01-06T05:19:16;98464.34;;;5.78;100.00
75157;BME280;63736;50.076;8.198;2024-01-06T05:21:45;98462.50;;;5.78;100.00
75157;BME280;63736;50.076;8.198;2024-01-06T05:24:10;98460.84;;;5.77;100.00
75157;BME280;63736;50.076;8.198;2024-01-06T05:26:35;98460.59;;;5.81;100.00
75157;BME280;63736;50.076;8.198;2024-01-06T05:29:01;98461.56;;;5.79;100.00
75157;BME280;63736;50.076;8.198;2024-01-06T05:31:26;98458.91;;;5.79;100.00
75157;BME280;63736;50.076;8.198;2024-01-06T05:33:51;98458.91;;;5.79;100.00
75157;BME280;63736;50.076;8.198;2024-01-06T05:36:18;98463.38;;;5.79;100.00
75157;BME280;63736;50.076;8.198;2024-01-06T05:38:44;98465.16;;;5.78;100.00
75157;BME280;63736;50.076;8.198;2024-01-06T05:41:09;98466.84;;;5.79;100.00
75157;BME280;63736;50.076;8.198;2024-01-06T05:43:34;98464.06;;;5.81;100.00
75157;BME280;63736;50.076;8.198;2024-01-06T05:45:59;98470.22;;;5.82;100.00
75157;BME280;63736;50.076;8.198;2024-01-06T05:48:24;98475.53;;;5.82;100.00
75157;BME280;63736;50.076;8.198;2024-01-06T05:50:49;98474.56;;;5.83;100.00
75157;BME280;63736;50.076;8.198;2024-01-06T05:53:15;98479.75;;;5.84;100.00
75157;BME280;63736;50.076;8.198;2024-01-06T05:55:43;98488.66;;;5.83;100.00
75157;BME280;63736;50.076;8.198;2024-01-06T05:58:08;98479.88;;;5.83;100.00
75157;BME280;63736;50.076;8.198;2024-01-06T06:00:33;98480.84;;;5.82;100.00
75157;BME280;63736;50.076;8.198;2024-01-06T06:02:58;98482.75;;;5.79;100.00
75157;BME280;63736;50.076;8.198;2024-01-06T06:05:24;98486.25;;;5.80;100.00
75157;BME280;63736;50.076;8.198;2024-01-06T06:07:49;98489.75;;;5.81;100.00
75157;BME280;63736;50.076;8.198;2024-01-06T06:10:14;98487.94;;;5.81;100.00
75157;BME280;63736;50.076;8.198;2024-01-06T06:12:41;98486.00;;;5.83;100.00
75157;BME280;63736;50.076;8.198;2024-01-06T06:15:06;98486.84;;;5.84;100.00
75157;BME280;63736;50.076;8.198;2024-01-06T06:17:32;98493.22;;;5.81;100.00
75157;BME280;63736;50.076;8.198;2024-01-06T06:19:57;98490.09;;;5.76;100.00
75157;BME280;63736;50.076;8.198;2024-01-06T06:22:23;98488.06;;;5.68;100.00
75157;BME280;63736;50.076;8.198;2024-01-06T06:24:48;98482.69;;;5.58;100.00
75157;BME280;63736;50.076;8.198;2024-01-06T06:27:13;98487.50;;;5.53;100.00
75157;BME280;63736;50.076;8.198;2024-01-06T06:29:38;98496.28;;;5.54;100.00
75157;BME280;63736;50.076;8.198;2024-01-06T06:32:04;98507.75;;;5.54;100.00
75157;BME280;63736;50.076;8.198;2024-01-06T06:34:29;98509.44;;;5.55;100.00
75157;BME280;63736;50.076;8.198;2024-01-06T06:36:54;98514.59;;;5.57;100.00
75157;BME280;63736;50.076;8.198;2024-01-06T06:39:19;98517.13;;;5.58;100.00
75157;BME280;63736;50.076;8.198;2024-01-06T06:41:44;98525.78;;;5.60;100.00
75157;BME280;63736;50.076;8.198;2024-01-06T06:44:10;98519.38;;;5.63;100.00
75157;BME280;63736;50.076;8.198;2024-01-06T06:46:35;98531.53;;;5.66;100.00
75157;BME280;63736;50.076;8.198;2024-01-06T06:49:00;98529.75;;;5.66;100.00
75157;BME280;63736;50.076;8.198;2024-01-06T06:51:26;98535.88;;;5.67;100.00
75157;BME280;63736;50.076;8.198;2024-01-06T06:53:52;98533.38;;;5.65;100.00
75157;BME280;63736;50.076;8.198;2024-01-06T06:56:17;98541.44;;;5.63;100.00
75157;BME280;63736;50.076;8.198;2024-01-06T06:58:42;98553.13;;;5.61;100.00
75157;BME280;63736;50.076;8.198;2024-01-06T07:01:07;98553.25;;;5.59;100.00
75157;BME280;63736;50.076;8.198;2024-01-06T07:03:33;98556.13;;;5.56;100.00
75157;BME280;63736;50.076;8.198;2024-01-06T07:05:58;98558.06;;;5.54;100.00
75157;BME280;63736;50.076;8.198;2024-01-06T07:08:23;98557.22;;;5.54;100.00
75157;BME280;63736;50.076;8.198;2024-01-06T07:10:48;98558.19;;;5.53;100.00
75157;BME280;63736;50.076;8.198;2024-01-06T07:13:13;98567.81;;;5.54;100.00
75157;BME280;63736;50.076;8.198;2024-01-06T07:15:39;98559.97;;;5.52;100.00
75157;BME280;63736;50.076;8.198;2024-01-06T07:18:04;98563.50;;;5.53;100.00
75157;BME280;63736;50.076;8.198;2024-01-06T07:20:29;98562.75;;;5.51;100.00
75157;BME280;63736;50.076;8.198;2024-01-06T07:22:54;98568.88;;;5.51;100.00
75157;BME280;63736;50.076;8.198;2024-01-06T07:25:19;98565.28;;;5.52;100.00
75157;BME280;63736;50.076;8.198;2024-01-06T07:27:45;98574.09;;;5.53;100.00
75157;BME280;63736;50.076;8.198;2024-01-06T07:30:10;98574.09;;;5.53;100.00
75157;BME280;63736;50.076;8.198;2024-01-06T07:32:35;98584.78;;;5.51;100.00
75157;BME280;63736;50.076;8.198;2024-01-06T07:35:01;98591.06;;;5.50;100.00
75157;BME280;63736;50.076;8.198;2024-01-06T07:37:27;98588.50;;;5.49;100.00
75157;BME280;63736;50.076;8.198;2024-01-06T07:39:52;98603.44;;;5.50;100.00
75157;BME280;63736;50.076;8.198;2024-01-06T07:42:17;98596.47;;;5.49;100.00
75157;BME280;63736;50.076;8.198;2024-01-06T07:44:43;98604.41;;;5.49;100.00
75157;BME280;63736;50.076;8.198;2024-01-06T07:47:09;98622.84;;;5.50;100.00
75157;BME280;63736;50.076;8.198;2024-01-06T07:49:34;98622.72;;;5.52;100.00
75157;BME280;63736;50.076;8.198;2024-01-06T07:51:59;98624.28;;;5.54;100.00
75157;BME280;63736;50.076;8.198;2024-01-06T07:54:25;98623.34;;;5.55;100.00
75157;BME280;63736;50.076;8.198;2024-01-06T07:56:50;98630.28;;;5.56;100.00
75157;BME280;63736;50.076;8.198;2024-01-06T07:59:15;98632.72;;;5.59;100.00
75157;BME280;63736;50.076;8.198;2024-01-06T08:01:40;98637.66;;;5.64;100.00
75157;BME280;63736;50.076;8.198;2024-01-06T08:04:07;98647.91;;;5.69;100.00
75157;BME280;63736;50.076;8.198;2024-01-06T08:06:33;98644.03;;;5.73;100.00
75157;BME280;63736;50.076;8.198;2024-01-06T08:08:58;98654.41;;;5.76;100.00
75157;BME280;63736;50.076;8.198;2024-01-06T08:11:23;98644.41;;;5.79;100.00
75157;BME280;63736;50.076;8.198;2024-01-06T08:13:48;98636.81;;;5.86;100.00
75157;BME280;63736;50.076;8.198;2024-01-06T08:16:13;98640.81;;;5.92;100.00
75157;BME280;63736;50.076;8.198;2024-01-06T08:18:38;98648.50;;;5.95;100.00
75157;BME280;63736;50.076;8.198;2024-01-06T08:21:04;98643.72;;;6.00;100.00
75157;BME280;63736;50.076;8.198;2024-01-06T08:23:29;98643.22;;;6.06;100.00
75157;BME280;63736;50.076;8.198;2024-01-06T08:25:54;98647.31;;;6.10;100.00
75157;BME280;63736;50.076;8.198;2024-01-06T08:28:20;98646.97;;;6.15;100.00
75157;BME280;63736;50.076;8.198;2024-01-06T08:30:48;98647.53;;;6.19;100.00
75157;BME280;63736;50.076;8.198;2024-01-06T08:33:13;98654.19;;;6.24;100.00
75157;BME280;63736;50.076;8.198;2024-01-06T08:35:38;98653.78;;;6.29;100.00
75157;BME280;63736;50.076;8.198;2024-01-06T08:38:08;98653.56;;;6.32;100.00
75157;BME280;63736;50.076;8.198;2024-01-06T08:40:34;98659.56;;;6.34;100.00
75157;BME280;63736;50.076;8.198;2024-01-06T08:43:00;98661.13;;;6.37;100.00
75157;BME280;63736;50.076;8.198;2024-01-06T08:45:25;98665.47;;;6.38;100.00
75157;BME280;63736;50.076;8.198;2024-01-06T08:47:50;98663.56;;;6.40;100.00
75157;BME280;63736;50.076;8.198;2024-01-06T08:50:15;98673.91;;;6.43;100.00
75157;BME280;63736;50.076;8.198;2024-01-06T08:52:40;98672.94;;;6.44;100.00
75157;BME280;63736;50.076;8.198;2024-01-06T08:55:06;98672.81;;;6.45;100.00
75157;BME280;63736;50.076;8.198;2024-01-06T08:57:31;98673.78;;;6.44;100.00
75157;BME280;63736;50.076;8.198;2024-01-06T08:59:56;98676.56;;;6.43;100.00
75157;BME280;63736;50.076;8.198;2024-01-06T09:02:21;98679.34;;;6.41;100.00
75157;BME280;63736;50.076;8.198;2024-01-06T09:04:47;98684.78;;;6.40;100.00
75157;BME280;63736;50.076;8.198;2024-01-06T09:07:12;98681.25;;;6.39;100.00
75157;BME280;63736;50.076;8.198;2024-01-06T09:09:37;98682.22;;;6.38;100.00
75157;BME280;63736;50.076;8.198;2024-01-06T09:12:02;98679.47;;;6.40;100.00
75157;BME280;63736;50.076;8.198;2024-01-06T09:14:28;98688.88;;;6.44;100.00
75157;BME280;63736;50.076;8.198;2024-01-06T09:16:53;98686.78;;;6.48;100.00
75157;BME280;63736;50.076;8.198;2024-01-06T09:19:18;98693.66;;;6.50;100.00
75157;BME280;63736;50.076;8.198;2024-01-06T09:21:44;98693.44;;;6.53;100.00
75157;BME280;63736;50.076;8.198;2024-01-06T09:24:09;98699.44;;;6.55;100.00
75157;BME280;63736;50.076;8.198;2024-01-06T09:26:35;98709.94;;;6.57;100.00
75157;BME280;63736;50.076;8.198;2024-01-06T09:29:00;98710.78;;;6.57;100.00
75157;BME280;63736;50.076;8.198;2024-01-06T09:31:25;98715.97;;;6.59;100.00
75157;BME280;63736;50.076;8.198;2024-01-06T09:33:51;98714.16;;;6.59;100.00
75157;BME280;63736;50.076;8.198;2024-01-06T09:36:16;98716.81;;;6.59;100.00
75157;BME280;63736;50.076;8.198;2024-01-06T09:38:41;98720.44;;;6.58;100.00
75157;BME280;63736;50.076;8.198;2024-01-06T09:41:06;98713.56;;;6.56;100.00
75157;BME280;63736;50.076;8.198;2024-01-06T09:43:32;98719.69;;;6.56;100.00
75157;BME280;63736;50.076;8.198;2024-01-06T09:46:06;98717.06;;;6.56;100.00
75157;BME280;63736;50.076;8.198;2024-01-06T09:48:32;98723.09;;;6.58;100.00
75157;BME280;63736;50.076;8.198;2024-01-06T09:51:01;98723.69;;;6.62;100.00
75157;BME280;63736;50.076;8.198;2024-01-06T09:53:28;98728.88;;;6.64;100.00
75157;BME280;63736;50.076;8.198;2024-01-06T09:55:58;98733.09;;;6.66;100.00
75157;BME280;63736;50.076;8.198;2024-01-06T09:58:23;98733.91;;;6.67;100.00
75157;BME280;63736;50.076;8.198;2024-01-06T10:00:48;98734.78;;;6.67;100.00
75157;BME280;63736;50.076;8.198;2024-01-06T10:03:14;98732.97;;;6.68;100.00
75157;BME280;63736;50.076;8.198;2024-01-06T10:05:40;98744.41;;;6.68;100.00
75157;BME280;63736;50.076;8.198;2024-01-06T10:08:05;98741.66;;;6.70;100.00
75157;BME280;63736;50.076;8.198;2024-01-06T10:10:30;98746.69;;;6.73;100.00
75157;BME280;63736;50.076;8.198;2024-01-06T10:12:55;98739.34;;;6.76;100.00
75157;BME280;63736;50.076;8.198;2024-01-06T10:15:21;98742.56;;;6.80;100.00
75157;BME280;63736;50.076;8.198;2024-01-06T10:17:46;98738.72;;;6.84;100.00
75157;BME280;63736;50.076;8.198;2024-01-06T10:20:12;98734.97;;;6.87;100.00
75157;BME280;63736;50.076;8.198;2024-01-06T10:22:37;98737.38;;;6.90;100.00
75157;BME280;63736;50.076;8.198;2024-01-06T10:25:06;98736.16;;;6.94;100.00
75157;BME280;63736;50.076;8.198;2024-01-06T10:27:35;98740.97;;;7.00;100.00
75157;BME280;63736;50.076;8.198;2024-01-06T10:30:01;98745.88;;;7.05;100.00
75157;BME280;63736;50.076;8.198;2024-01-06T10:32:26;98747.06;;;7.12;100.00
75157;BME280;63736;50.076;8.198;2024-01-06T10:34:54;98744.75;;;7.19;100.00
75157;BME280;63736;50.076;8.198;2024-01-06T10:37:19;98744.13;;;7.26;100.00
75157;BME280;63736;50.076;8.198;2024-01-06T10:39:45;98751.44;;;7.34;100.00
75157;BME280;63736;50.076;8.198;2024-01-06T10:42:10;98751.53;;;7.44;100.00
75157;BME280;63736;50.076;8.198;2024-01-06T10:44:37;98750.78;;;7.53;100.00
75157;BME280;63736;50.076;8.198;2024-01-06T10:47:04;98749.84;;;7.64;100.00
75157;BME280;63736;50.076;8.198;2024-01-06T10:49:31;98745.72;;;7.71;100.00
75157;BME280;63736;50.076;8.198;2024-01-06T10:51:56;98746.19;;;7.76;100.00
75157;BME280;63736;50.076;8.198;2024-01-06T10:54:23;98751.09;;;7.81;100.00
75157;BME280;63736;50.076;8.198;2024-01-06T10:56:49;98746.22;;;7.86;100.00
75157;BME280;63736;50.076;8.198;2024-01-06T10:59:16;98746.66;;;7.91;100.00
75157;BME280;63736;50.076;8.198;2024-01-06T11:01:44;98743.34;;;7.99;100.00
75157;BME280;63736;50.076;8.198;2024-01-06T11:04:09;98743.06;;;8.02;100.00
75157;BME280;63736;50.076;8.198;2024-01-06T11:06:35;98742.41;;;8.10;100.00
75157;BME280;63736;50.076;8.198;2024-01-06T11:09:06;98732.13;;;8.17;100.00
75157;BME280;63736;50.076;8.198;2024-01-06T11:11:31;98734.94;;;8.25;100.00
75157;BME280;63736;50.076;8.198;2024-01-06T11:16:41;98726.28;;;8.33;100.00
75157;BME280;63736;50.076;8.198;2024-01-06T11:21:51;98731.19;;;8.27;100.00
75157;BME280;63736;50.076;8.198;2024-01-06T11:24:19;98720.38;;;8.29;100.00
75157;BME280;63736;50.076;8.198;2024-01-06T11:26:50;98721.81;;;8.33;100.00
75157;BME280;63736;50.076;8.198;2024-01-06T11:29:16;98720.56;;;8.37;100.00
75157;BME280;63736;50.076;8.198;2024-01-06T11:31:41;98721.84;;;8.43;100.00
75157;BME280;63736;50.076;8.198;2024-01-06T11:34:17;98720.63;;;8.47;100.00
75157;BME280;63736;50.076;8.198;2024-01-06T11:36:44;98724.56;;;8.53;100.00
75157;BME280;63736;50.076;8.198;2024-01-06T11:39:33;98721.66;;;8.56;100.00
75157;BME280;63736;50.076;8.198;2024-01-06T11:41:55;98721.66;;;8.56;100.00
75157;BME280;63736;50.076;8.198;2024-01-06T11:44:22;98717.16;;;8.56;100.00
75157;BME280;63736;50.076;8.198;2024-01-06T11:46:47;98720.91;;;8.54;100.00
75157;BME280;63736;50.076;8.198;2024-01-06T11:49:17;98716.56;;;8.53;100.00
75157;BME280;63736;50.076;8.198;2024-01-06T11:51:45;98713.47;;;8.48;100.00
75157;BME280;63736;50.076;8.198;2024-01-06T11:54:10;98708.53;;;8.43;100.00
75157;BME280;63736;50.076;8.198;2024-01-06T11:56:37;98719.56;;;8.38;100.00
75157;BME280;63736;50.076;8.198;2024-01-06T11:59:02;98708.09;;;8.38;100.00
75157;BME280;63736;50.076;8.198;2024-01-06T12:01:27;98719.00;;;8.35;100.00
75157;BME280;63736;50.076;8.198;2024-01-06T12:03:53;98719.00;;;8.35;100.00
75157;BME280;63736;50.076;8.198;2024-01-06T12:06:20;98712.03;;;8.34;100.00
75157;BME280;63736;50.076;8.198;2024-01-06T12:08:46;98717.34;;;8.34;100.00
75157;BME280;63736;50.076;8.198;2024-01-06T12:11:11;98716.34;;;8.35;100.00
75157;BME280;63736;50.076;8.198;2024-01-06T12:13:36;98718.03;;;8.36;100.00
75157;BME280;63736;50.076;8.198;2024-01-06T12:16:01;98715.94;;;8.39;100.00
75157;BME280;63736;50.076;8.198;2024-01-06T12:18:27;98715.81;;;8.41;100.00
75157;BME280;63736;50.076;8.198;2024-01-06T12:20:52;98711.34;;;8.41;100.00
75157;BME280;63736;50.076;8.198;2024-01-06T12:23:24;98717.63;;;8.40;100.00
75157;BME280;63736;50.076;8.198;2024-01-06T12:25:50;98716.91;;;8.38;100.00
75157;BME280;63736;50.076;8.198;2024-01-06T12:28:15;98723.50;;;8.34;100.00
75157;BME280;63736;50.076;8.198;2024-01-06T12:30:40;98715.06;;;8.29;100.00
75157;BME280;63736;50.076;8.198;2024-01-06T12:33:05;98716.31;;;8.25;100.00
75157;BME280;63736;50.076;8.198;2024-01-06T12:35:30;98713.06;;;8.21;100.00
75157;BME280;63736;50.076;8.198;2024-01-06T12:37:56;98721.47;;;8.17;100.00
75157;BME280;63736;50.076;8.198;2024-01-06T12:40:21;98719.59;;;8.07;100.00
75157;BME280;63736;50.076;8.198;2024-01-06T12:42:47;98722.22;;;7.98;100.00
75157;BME280;63736;50.076;8.198;2024-01-06T12:45:12;98720.22;;;7.90;100.00
75157;BME280;63736;50.076;8.198;2024-01-06T12:47:41;98717.94;;;7.85;100.00
75157;BME280;63736;50.076;8.198;2024-01-06T12:50:07;98720.88;;;7.82;100.00
75157;BME280;63736;50.076;8.198;2024-01-06T12:52:33;98721.97;;;7.80;100.00
75157;BME280;63736;50.076;8.198;2024-01-06T12:54:58;98732.88;;;7.76;100.00
75157;BME280;63736;50.076;8.198;2024-01-06T12:57:24;98734.94;;;7.73;100.00